^^
Saratoga-Weather Station Historical Data
Daily Summary for April 24, 2020 Units:  Both    English   Metric
Daily Weekly Monthly Yearly Custom
  High: Low: Average:
Temperature: 48.4 °F /  9.1 °C 37.6 °F /  3.1 °C 43 °F /  6.1 °C
Dew Point: 43.9 °F /  6.6 °C 35.2 °F /  1.8 °C 40.1 °F /  4.5 °C
Humidity: 95% 79% 90%
Wind Speed: 12.1mph /  19.5km/h - 3.7mph /  6km/h
Wind Gust: 17mph /  27.4km/h - -
Wind- - West
Pressure: 30 in /  1016.9 hPa 29.7 in /  1006.4 hPa -
Precipitation: 0.44 in /  11.2 mm    
Historical Graphs
 
 
Tabular Data for April 24, 2020
Time Temperature Dew Point Pressure Wind Wind Speed Wind Gust Humidity Rainfall Rate (Hourly) solar
00:03 48.4 °F /  9.1 °C 43.7 °F /  6.5 °C 29.8in /  1010.2hPa West 2mph /  3.2km/h 12mph /  19.3km/h 84% 0in /  0.0mm 0 W/m2
00:08 48.2 °F /  9 °C 43.5 °F /  6.4 °C 29.8in /  1010.2hPa WNW 0.9mph /  1.4km/h 4mph /  6.4km/h 84% 0in /  0.0mm 0 W/m2
00:13 48 °F /  8.9 °C 43.3 °F /  6.3 °C 29.8in /  1010.2hPa WNW 4mph /  6.4km/h 4mph /  6.4km/h 84% 0in /  0.0mm 0 W/m2
00:18 48 °F /  8.9 °C 43.3 °F /  6.3 °C 29.8in /  1010.2hPa WNW 0.9mph /  1.4km/h 6mph /  9.7km/h 84% 0in /  0.0mm 0 W/m2
00:23 48 °F /  8.9 °C 43.3 °F /  6.3 °C 29.8in /  1010.2hPa NW 4.9mph /  7.9km/h 5mph /  8km/h 84% 0in /  0.0mm 0 W/m2
00:28 48 °F /  8.9 °C 43.3 °F /  6.3 °C 29.8in /  1010.2hPa WNW 2mph /  3.2km/h 5mph /  8km/h 84% 0in /  0.0mm 0 W/m2
00:33 48 °F /  8.9 °C 43.3 °F /  6.3 °C 29.8in /  1010.2hPa NW 2mph /  3.2km/h 4mph /  6.4km/h 84% 0in /  0.0mm 0 W/m2
00:38 47.8 °F /  8.8 °C 43.2 °F /  6.2 °C 29.8in /  1009.8hPa NW 4.9mph /  7.9km/h 5mph /  8km/h 84% 0in /  0.0mm 0 W/m2
00:43 48 °F /  8.9 °C 43.2 °F /  6.2 °C 29.8in /  1010.2hPa WNW 4.9mph /  7.9km/h 8mph /  12.9km/h 83% 0in /  0.0mm 0 W/m2
00:48 48 °F /  8.9 °C 43.2 °F /  6.2 °C 29.8in /  1009.8hPa ENE 2mph /  3.2km/h 3mph /  4.8km/h 83% 0in /  0.0mm 0 W/m2
00:53 47.8 °F /  8.8 °C 42.6 °F /  5.9 °C 29.8in /  1009.8hPa WNW 2mph /  3.2km/h 5mph /  8km/h 82% 0in /  0.0mm 0 W/m2
00:58 47.8 °F /  8.8 °C 42.6 °F /  5.9 °C 29.8in /  1009.8hPa West 2mph /  3.2km/h 6mph /  9.7km/h 82% 0in /  0.0mm 0 W/m2
01:16 47.7 °F /  8.7 °C 41.7 °F /  5.4 °C 29.8in /  1010.2hPa NW 6.9mph /  11.1km/h 9mph /  14.5km/h 80% 0in /  0.0mm 0 W/m2
01:21 47.5 °F /  8.6 °C 41.4 °F /  5.2 °C 29.8in /  1010.2hPa WSW 10mph /  16.1km/h 10mph /  16.1km/h 79% 0in /  0.0mm 0 W/m2
01:26 47.5 °F /  8.6 °C 41.5 °F /  5.3 °C 29.8in /  1009.8hPa WSW 2.9mph /  4.7km/h 7mph /  11.3km/h 80% 0in /  0.0mm 0 W/m2
01:31 47.5 °F /  8.6 °C 41.5 °F /  5.3 °C 29.8in /  1009.8hPa WNW 0.9mph /  1.4km/h 4mph /  6.4km/h 80% 0in /  0.0mm 0 W/m2
01:36 47.5 °F /  8.6 °C 41.5 °F /  5.3 °C 29.8in /  1009.8hPa South 2mph /  3.2km/h 7mph /  11.3km/h 80% 0in /  0.0mm 0 W/m2
01:41 47.3 °F /  8.5 °C 41.4 °F /  5.2 °C 29.8in /  1009.8hPa WNW 0.9mph /  1.4km/h 6mph /  9.7km/h 80% 0in /  0.0mm 0 W/m2
01:46 47.3 °F /  8.5 °C 41.4 °F /  5.2 °C 29.8in /  1009.8hPa NW 2mph /  3.2km/h 3mph /  4.8km/h 80% 0in /  0.0mm 0 W/m2
01:51 47.3 °F /  8.5 °C 41.7 °F /  5.4 °C 29.8in /  1009.8hPa WNW 0.9mph /  1.4km/h 3mph /  4.8km/h 81% 0in /  0.0mm 0 W/m2
01:56 47.1 °F /  8.4 °C 41.9 °F /  5.5 °C 29.8in /  1009.8hPa SSE 0.9mph /  1.4km/h 4mph /  6.4km/h 82% 0in /  0.0mm 0 W/m2
02:01 46.9 °F /  8.3 °C 41.4 °F /  5.2 °C 29.8in /  1009.8hPa NW 2mph /  3.2km/h 6mph /  9.7km/h 81% 0in /  0.0mm 0 W/m2
02:06 47.1 °F /  8.4 °C 41.5 °F /  5.3 °C 29.8in /  1009.8hPa WNW 0.9mph /  1.4km/h 2mph /  3.2km/h 81% 0in /  0.0mm 0 W/m2
02:11 47.1 °F /  8.4 °C 41.5 °F /  5.3 °C 29.8in /  1009.5hPa SW 2.9mph /  4.7km/h 5mph /  8km/h 81% 0in /  0.0mm 0 W/m2
02:16 46.9 °F /  8.3 °C 41.4 °F /  5.2 °C 29.8in /  1009.5hPa SW 2mph /  3.2km/h 5mph /  8km/h 81% 0in /  0.0mm 0 W/m2
02:34 46.9 °F /  8.3 °C 41.2 °F /  5.1 °C 29.8in /  1009.5hPa NNW 0.9mph /  1.4km/h 3mph /  4.8km/h 80% 0in /  0.0mm 0 W/m2
02:39 46.8 °F /  8.2 °C 41.2 °F /  5.1 °C 29.8in /  1009.5hPa WNW 2mph /  3.2km/h 4mph /  6.4km/h 81% 0in /  0.0mm 0 W/m2
02:44 46.8 °F /  8.2 °C 41.2 °F /  5.1 °C 29.8in /  1009.5hPa NNE 0.9mph /  1.4km/h 4mph /  6.4km/h 81% 0in /  0.0mm 0 W/m2
02:49 46.9 °F /  8.3 °C 41.4 °F /  5.2 °C 29.8in /  1009.1hPa NNW 6mph /  9.7km/h 6mph /  9.7km/h 81% 0in /  0.0mm 0 W/m2
02:54 46.9 °F /  8.3 °C 41.2 °F /  5.1 °C 29.8in /  1009.1hPa NNW 0.9mph /  1.4km/h 4mph /  6.4km/h 80% 0in /  0.0mm 0 W/m2
02:59 47.1 °F /  8.4 °C 41.4 °F /  5.2 °C 29.8in /  1009.1hPa NNW 0.9mph /  1.4km/h 8mph /  12.9km/h 80% 0in /  0.0mm 0 W/m2
03:04 47.1 °F /  8.4 °C 41.4 °F /  5.2 °C 29.8in /  1009.1hPa NE 2.9mph /  4.7km/h 4mph /  6.4km/h 80% 0in /  0.0mm 0 W/m2
03:09 46.9 °F /  8.3 °C 41.2 °F /  5.1 °C 29.8in /  1009.1hPa NW 2mph /  3.2km/h 8mph /  12.9km/h 80% 0in /  0.0mm 0 W/m2
03:14 47.1 °F /  8.4 °C 41.4 °F /  5.2 °C 29.8in /  1009.1hPa NE 2mph /  3.2km/h 3mph /  4.8km/h 80% 0in /  0.0mm 0 W/m2
03:19 46.9 °F /  8.3 °C 41.2 °F /  5.1 °C 29.8in /  1008.8hPa NNE 0.9mph /  1.4km/h 5mph /  8km/h 80% 0in /  0.0mm 0 W/m2
03:24 46.9 °F /  8.3 °C 41.4 °F /  5.2 °C 29.8in /  1008.8hPa NW 2.9mph /  4.7km/h 4mph /  6.4km/h 81% 0in /  0.0mm 0 W/m2
03:29 46.9 °F /  8.3 °C 41.4 °F /  5.2 °C 29.8in /  1008.5hPa Calm   4mph /  6.4km/h 81% 0in /  0.0mm 0 W/m2
03:34 46.9 °F /  8.3 °C 41.4 °F /  5.2 °C 29.8in /  1008.5hPa ENE 2.9mph /  4.7km/h 4mph /  6.4km/h 81% 0in /  0.0mm 0 W/m2
03:39 46.8 °F /  8.2 °C 41.2 °F /  5.1 °C 29.8in /  1008.5hPa East 2.9mph /  4.7km/h 5mph /  8km/h 81% 0in /  0.0mm 0 W/m2
03:44 46.8 °F /  8.2 °C 41.2 °F /  5.1 °C 29.8in /  1008.1hPa NE 4mph /  6.4km/h 7mph /  11.3km/h 81% 0in /  0.0mm 0 W/m2
03:49 46.9 °F /  8.3 °C 41.4 °F /  5.2 °C 29.8in /  1008.1hPa North 0.9mph /  1.4km/h 3mph /  4.8km/h 81% 0in /  0.0mm 0 W/m2
03:54 46.9 °F /  8.3 °C 41.4 °F /  5.2 °C 29.8in /  1008.1hPa NNW 2mph /  3.2km/h 5mph /  8km/h 81% 0in /  0.0mm 0 W/m2
03:59 47.1 °F /  8.4 °C 41.5 °F /  5.3 °C 29.8in /  1008.1hPa North 4mph /  6.4km/h 4mph /  6.4km/h 81% 0in /  0.0mm 0 W/m2
04:04 47.1 °F /  8.4 °C 41.9 °F /  5.5 °C 29.8in /  1007.8hPa ESE 0.9mph /  1.4km/h 2mph /  3.2km/h 82% 0in /  0.0mm 0 W/m2
04:09 47.1 °F /  8.4 °C 41.5 °F /  5.3 °C 29.8in /  1007.8hPa Calm   3mph /  4.8km/h 81% 0in /  0.0mm 0 W/m2
04:14 47.1 °F /  8.4 °C 41.5 °F /  5.3 °C 29.8in /  1007.8hPa SSW 2.9mph /  4.7km/h 7mph /  11.3km/h 81% 0in /  0.0mm 0 W/m2
04:19 46.9 °F /  8.3 °C 41.7 °F /  5.4 °C 29.8in /  1007.8hPa NNW 0.9mph /  1.4km/h 5mph /  8km/h 82% 0in /  0.0mm 0 W/m2
04:24 46.8 °F /  8.2 °C 41.9 °F /  5.5 °C 29.8in /  1007.8hPa NW 4.9mph /  7.9km/h 8mph /  12.9km/h 83% 0.01in /  0.2mm 0 W/m2
04:29 46.6 °F /  8.1 °C 42.1 °F /  5.6 °C 29.8in /  1007.8hPa WNW 2.9mph /  4.7km/h 5mph /  8km/h 84% 0.02in /  0.5mm 0 W/m2
04:34 46.4 °F /  8 °C 41.9 °F /  5.5 °C 29.8in /  1007.8hPa NW 4mph /  6.4km/h 6mph /  9.7km/h 84% 0.02in /  0.5mm 0 W/m2
04:39 46 °F /  7.8 °C 42.1 °F /  5.6 °C 29.8in /  1007.8hPa NW 4mph /  6.4km/h 8mph /  12.9km/h 86% 0.03in /  0.8mm 0 W/m2
04:44 46 °F /  7.8 °C 42.1 °F /  5.6 °C 29.8in /  1007.5hPa NE 4mph /  6.4km/h 5mph /  8km/h 86% 0.03in /  0.8mm 0 W/m2
04:49 45.9 °F /  7.7 °C 42.3 °F /  5.7 °C 29.8in /  1007.5hPa NE 4mph /  6.4km/h 4mph /  6.4km/h 87% 0.04in /  1.0mm 0 W/m2
04:54 45.7 °F /  7.6 °C 42.3 °F /  5.7 °C 29.8in /  1007.5hPa ENE 0.9mph /  1.4km/h 3mph /  4.8km/h 88% 0.04in /  1.0mm 0 W/m2
04:59 45.7 °F /  7.6 °C 42.3 °F /  5.7 °C 29.7in /  1007.1hPa NW 2.9mph /  4.7km/h 3mph /  4.8km/h 88% 0.04in /  1.0mm 0 W/m2
05:04 45.5 °F /  7.5 °C 42.4 °F /  5.8 °C 29.7in /  1007.1hPa WNW 0.9mph /  1.4km/h 10mph /  16.1km/h 89% 0.05in /  1.3mm 0 W/m2
05:21 45.3 °F /  7.4 °C 42.6 °F /  5.9 °C 29.7in /  1007.1hPa ENE 2mph /  3.2km/h 4mph /  6.4km/h 90% 0.05in /  1.3mm 0 W/m2
05:26 45.3 °F /  7.4 °C 42.6 °F /  5.9 °C 29.7in /  1007.1hPa SSW 0.9mph /  1.4km/h 6mph /  9.7km/h 90% 0.05in /  1.3mm 0 W/m2
05:32 45.1 °F /  7.3 °C 42.4 °F /  5.8 °C 29.7in /  1007.1hPa NE 0.9mph /  1.4km/h 3mph /  4.8km/h 90% 0.05in /  1.3mm 0 W/m2
05:37 45.1 °F /  7.3 °C 42.6 °F /  5.9 °C 29.7in /  1007.1hPa WNW 2.9mph /  4.7km/h 6mph /  9.7km/h 91% 0.05in /  1.3mm 0 W/m2
05:42 45.1 °F /  7.3 °C 42.6 °F /  5.9 °C 29.7in /  1007.1hPa NE 2mph /  3.2km/h 8mph /  12.9km/h 91% 0.06in /  1.5mm 0 W/m2
05:47 45 °F /  7.2 °C 42.4 °F /  5.8 °C 29.7in /  1007.1hPa WNW 2.9mph /  4.7km/h 5mph /  8km/h 91% 0.06in /  1.5mm 0 W/m2
05:52 45 °F /  7.2 °C 42.4 °F /  5.8 °C 29.7in /  1006.8hPa WNW 2mph /  3.2km/h 9mph /  14.5km/h 91% 0.06in /  1.5mm 0 W/m2
05:57 45 °F /  7.2 °C 42.4 °F /  5.8 °C 29.7in /  1007.1hPa North 4mph /  6.4km/h 8mph /  12.9km/h 91% 0.07in /  1.8mm 0 W/m2
06:02 45 °F /  7.2 °C 42.8 °F /  6 °C 29.7in /  1006.8hPa NNW 0.9mph /  1.4km/h 9mph /  14.5km/h 92% 0.07in /  1.8mm 0 W/m2
06:07 44.8 °F /  7.1 °C 42.6 °F /  5.9 °C 29.7in /  1006.8hPa Calm   10mph /  16.1km/h 92% 0.08in /  2.0mm 0 W/m2
06:12 44.8 °F /  7.1 °C 42.6 °F /  5.9 °C 29.7in /  1006.8hPa WNW 6.9mph /  11.1km/h 14mph /  22.5km/h 92% 0.09in /  2.3mm 0 W/m2
06:17 44.8 °F /  7.1 °C 42.6 °F /  5.9 °C 29.7in /  1006.8hPa WNW 2.9mph /  4.7km/h 4mph /  6.4km/h 92% 0.1in /  2.5mm 0 W/m2
06:22 44.6 °F /  7 °C 42.4 °F /  5.8 °C 29.7in /  1006.8hPa Calm   14mph /  22.5km/h 92% 0.11in /  2.8mm 0 W/m2
06:27 44.6 °F /  7 °C 42.4 °F /  5.8 °C 29.7in /  1007.1hPa West 6mph /  9.7km/h 9mph /  14.5km/h 92% 0.11in /  2.8mm 0 W/m2
06:32 44.6 °F /  7 °C 42.4 °F /  5.8 °C 29.7in /  1007.1hPa NE 12.1mph /  19.5km/h 12mph /  19.3km/h 92% 0.11in /  2.8mm 0 W/m2
06:37 44.6 °F /  7 °C 42.4 °F /  5.8 °C 29.7in /  1006.8hPa West 2mph /  3.2km/h 4mph /  6.4km/h 92% 0.12in /  3.0mm 0 W/m2
06:42 44.4 °F /  6.9 °C 42.3 °F /  5.7 °C 29.7in /  1007.1hPa NE 0.9mph /  1.4km/h 4mph /  6.4km/h 92% 0.13in /  3.3mm 0 W/m2
06:47 44.4 °F /  6.9 °C 42.3 °F /  5.7 °C 29.7in /  1006.8hPa NNW 2mph /  3.2km/h 5mph /  8km/h 92% 0.14in /  3.6mm 0 W/m2
06:52 44.4 °F /  6.9 °C 42.3 °F /  5.7 °C 29.7in /  1006.8hPa WNW 8.9mph /  14.3km/h 10mph /  16.1km/h 92% 0.16in /  4.1mm 0 W/m2
06:57 44.4 °F /  6.9 °C 42.3 °F /  5.7 °C 29.7in /  1006.8hPa West 2mph /  3.2km/h 9mph /  14.5km/h 92% 0.16in /  4.1mm 0 W/m2
07:02 44.4 °F /  6.9 °C 42.3 °F /  5.7 °C 29.7in /  1007.1hPa NNW 4.9mph /  7.9km/h 12mph /  19.3km/h 92% 0.16in /  4.1mm 0 W/m2
07:07 44.4 °F /  6.9 °C 42.3 °F /  5.7 °C 29.7in /  1006.8hPa WNW 4mph /  6.4km/h 7mph /  11.3km/h 92% 0.16in /  4.1mm 0 W/m2
07:12 44.4 °F /  6.9 °C 42.3 °F /  5.7 °C 29.7in /  1006.8hPa West 0.9mph /  1.4km/h 12mph /  19.3km/h 92% 0.16in /  4.1mm 0 W/m2
07:17 44.4 °F /  6.9 °C 42.4 °F /  5.8 °C 29.7in /  1006.8hPa Calm   3mph /  4.8km/h 93% 0.16in /  4.1mm 0 W/m2
07:22 44.4 °F /  6.9 °C 42.4 °F /  5.8 °C 29.7in /  1006.8hPa West 6mph /  9.7km/h 6mph /  9.7km/h 93% 0.15in /  3.8mm 0 W/m2
07:27 44.4 °F /  6.9 °C 42.4 °F /  5.8 °C 29.7in /  1006.4hPa SE 2mph /  3.2km/h 6mph /  9.7km/h 93% 0.15in /  3.8mm 0 W/m2
07:32 44.2 °F /  6.8 °C 42.3 °F /  5.7 °C 29.7in /  1006.8hPa WNW 0.9mph /  1.4km/h 8mph /  12.9km/h 93% 0.14in /  3.6mm 0 W/m2
07:37 44.4 °F /  6.9 °C 42.4 °F /  5.8 °C 29.7in /  1006.8hPa NNW 2.9mph /  4.7km/h 4mph /  6.4km/h 93% 0.13in /  3.3mm 0 W/m2
07:42 44.4 °F /  6.9 °C 42.4 °F /  5.8 °C 29.7in /  1006.8hPa ENE 2mph /  3.2km/h 7mph /  11.3km/h 93% 0.11in /  2.8mm 0 W/m2
07:47 44.4 °F /  6.9 °C 42.8 °F /  6 °C 29.7in /  1006.8hPa SW 2.9mph /  4.7km/h 7mph /  11.3km/h 94% 0.09in /  2.3mm 0 W/m2
07:52 44.4 °F /  6.9 °C 42.8 °F /  6 °C 29.7in /  1006.8hPa NW 2mph /  3.2km/h 7mph /  11.3km/h 94% 0.08in /  2.0mm 0 W/m2
07:57 44.4 °F /  6.9 °C 42.8 °F /  6 °C 29.7in /  1006.8hPa WNW 4mph /  6.4km/h 6mph /  9.7km/h 94% 0.08in /  2.0mm 0 W/m2
08:17 44.6 °F /  7 °C 43 °F /  6.1 °C 29.7in /  1007.1hPa West 4mph /  6.4km/h 6mph /  9.7km/h 94% 0.05in /  1.3mm 0 W/m2
08:22 44.6 °F /  7 °C 43.3 °F /  6.3 °C 29.7in /  1007.1hPa NW 6.9mph /  11.1km/h 8mph /  12.9km/h 95% 0.05in /  1.3mm 0 W/m2
08:27 44.8 °F /  7.1 °C 43.5 °F /  6.4 °C 29.7in /  1007.1hPa NW 2.9mph /  4.7km/h 9mph /  14.5km/h 95% 0.05in /  1.3mm 0 W/m2
08:32 44.8 °F /  7.1 °C 43.5 °F /  6.4 °C 29.7in /  1007.1hPa WNW 6mph /  9.7km/h 6mph /  9.7km/h 95% 0.04in /  1.0mm 0 W/m2
08:37 44.8 °F /  7.1 °C 43.5 °F /  6.4 °C 29.7in /  1007.1hPa West 6mph /  9.7km/h 7mph /  11.3km/h 95% 0.04in /  1.0mm 0 W/m2
08:42 45 °F /  7.2 °C 43.3 °F /  6.3 °C 29.7in /  1007.1hPa WNW 0.9mph /  1.4km/h 6mph /  9.7km/h 94% 0.03in /  0.8mm 5 W/m2
08:47 45 °F /  7.2 °C 43.3 °F /  6.3 °C 29.8in /  1007.5hPa West 4mph /  6.4km/h 8mph /  12.9km/h 94% 0.03in /  0.8mm 5 W/m2
08:52 45 °F /  7.2 °C 43.3 °F /  6.3 °C 29.8in /  1007.5hPa WNW 8.1mph /  13km/h 15mph /  24.1km/h 94% 0.03in /  0.8mm 9 W/m2
09:09 45.1 °F /  7.3 °C 43.5 °F /  6.4 °C 29.8in /  1007.5hPa West 4mph /  6.4km/h 9mph /  14.5km/h 94% 0.02in /  0.5mm 19 W/m2
09:14 45.1 °F /  7.3 °C 43.5 °F /  6.4 °C 29.8in /  1007.8hPa WNW 4mph /  6.4km/h 4mph /  6.4km/h 94% 0.02in /  0.5mm 23 W/m2
09:19 45.1 °F /  7.3 °C 43.5 °F /  6.4 °C 29.8in /  1007.8hPa WNW 2mph /  3.2km/h 4mph /  6.4km/h 94% 0.02in /  0.5mm 19 W/m2
09:24 45.1 °F /  7.3 °C 43.9 °F /  6.6 °C 29.8in /  1008.1hPa WNW 4.9mph /  7.9km/h 5mph /  8km/h 95% 0.01in /  0.2mm 33 W/m2
09:29 45.1 °F /  7.3 °C 43.5 °F /  6.4 °C 29.8in /  1008.1hPa West 4mph /  6.4km/h 9mph /  14.5km/h 94% 0.02in /  0.5mm 25 W/m2
09:34 45.1 °F /  7.3 °C 43.5 °F /  6.4 °C 29.8in /  1008.1hPa WNW 4.9mph /  7.9km/h 10mph /  16.1km/h 94% 0.02in /  0.5mm 25 W/m2
09:39 45.3 °F /  7.4 °C 43.7 °F /  6.5 °C 29.8in /  1008.5hPa West 6.9mph /  11.1km/h 10mph /  16.1km/h 94% 0.02in /  0.5mm 42 W/m2
10:00 45.3 °F /  7.4 °C 43.7 °F /  6.5 °C 29.8in /  1008.5hPa WNW 4.9mph /  7.9km/h 10mph /  16.1km/h 94% 0.02in /  0.5mm 70 W/m2
10:05 45.5 °F /  7.5 °C 43.5 °F /  6.4 °C 29.8in /  1008.5hPa West 6mph /  9.7km/h 8mph /  12.9km/h 93% 0.02in /  0.5mm 97 W/m2
10:10 45.5 °F /  7.5 °C 43.5 °F /  6.4 °C 29.8in /  1008.8hPa West 6.9mph /  11.1km/h 9mph /  14.5km/h 93% 0.01in /  0.2mm 60 W/m2
10:15 45.5 °F /  7.5 °C 43.5 °F /  6.4 °C 29.8in /  1008.8hPa WNW 4mph /  6.4km/h 10mph /  16.1km/h 93% 0.01in /  0.2mm 63 W/m2
10:20 45.3 °F /  7.4 °C 43.2 °F /  6.2 °C 29.8in /  1008.8hPa West 6.9mph /  11.1km/h 11mph /  17.7km/h 92% 0.01in /  0.2mm 49 W/m2
10:25 45.3 °F /  7.4 °C 43.2 °F /  6.2 °C 29.8in /  1008.8hPa SSW 6mph /  9.7km/h 10mph /  16.1km/h 92% 0in /  0.0mm 42 W/m2
10:30 45.3 °F /  7.4 °C 43.2 °F /  6.2 °C 29.8in /  1008.8hPa West 6mph /  9.7km/h 9mph /  14.5km/h 92% 0in /  0.0mm 116 W/m2
10:35 45.3 °F /  7.4 °C 43.2 °F /  6.2 °C 29.8in /  1009.1hPa WNW 2.9mph /  4.7km/h 7mph /  11.3km/h 92% 0in /  0.0mm 111 W/m2
10:40 45.5 °F /  7.5 °C 43.5 °F /  6.4 °C 29.8in /  1009.1hPa West 2mph /  3.2km/h 7mph /  11.3km/h 93% 0in /  0.0mm 109 W/m2
10:45 45.5 °F /  7.5 °C 43.3 °F /  6.3 °C 29.8in /  1009.1hPa West 6mph /  9.7km/h 8mph /  12.9km/h 92% 0in /  0.0mm 120 W/m2
10:50 45.7 °F /  7.6 °C 43.5 °F /  6.4 °C 29.8in /  1009.1hPa WNW 4mph /  6.4km/h 7mph /  11.3km/h 92% 0in /  0.0mm 176 W/m2
10:55 45.7 °F /  7.6 °C 43.5 °F /  6.4 °C 29.8in /  1009.5hPa WNW 2.9mph /  4.7km/h 8mph /  12.9km/h 92% 0in /  0.0mm 47 W/m2
11:00 45.5 °F /  7.5 °C 43.3 °F /  6.3 °C 29.8in /  1009.5hPa West 8.1mph /  13km/h 10mph /  16.1km/h 92% 0in /  0.0mm 67 W/m2
11:05 45.1 °F /  7.3 °C 43 °F /  6.1 °C 29.8in /  1009.5hPa WNW 6mph /  9.7km/h 8mph /  12.9km/h 92% 0in /  0.0mm 90 W/m2
11:10 45 °F /  7.2 °C 42.8 °F /  6 °C 29.8in /  1009.5hPa WNW 2.9mph /  4.7km/h 8mph /  12.9km/h 92% 0in /  0.0mm 104 W/m2
11:15 45 °F /  7.2 °C 43 °F /  6.1 °C 29.8in /  1009.5hPa West 11mph /  17.7km/h 11mph /  17.7km/h 93% 0in /  0.0mm 84 W/m2
11:34 45.1 °F /  7.3 °C 43.2 °F /  6.2 °C 29.8in /  1009.8hPa NW 8.9mph /  14.3km/h 9mph /  14.5km/h 93% 0in /  0.0mm 97 W/m2
11:39 45.1 °F /  7.3 °C 43 °F /  6.1 °C 29.8in /  1009.8hPa NW 2mph /  3.2km/h 9mph /  14.5km/h 92% 0in /  0.0mm 118 W/m2
11:44 45.1 °F /  7.3 °C 42.6 °F /  5.9 °C 29.8in /  1009.5hPa WNW 2mph /  3.2km/h 12mph /  19.3km/h 91% 0in /  0.0mm 81 W/m2
11:49 45.1 °F /  7.3 °C 42.6 °F /  5.9 °C 29.8in /  1009.5hPa WNW 2mph /  3.2km/h 6mph /  9.7km/h 91% 0in /  0.0mm 60 W/m2
11:54 45.1 °F /  7.3 °C 42.6 °F /  5.9 °C 29.8in /  1009.5hPa WNW 0.9mph /  1.4km/h 5mph /  8km/h 91% 0in /  0.0mm 60 W/m2
11:59 45.1 °F /  7.3 °C 42.6 °F /  5.9 °C 29.8in /  1009.1hPa WNW 2.9mph /  4.7km/h 8mph /  12.9km/h 91% 0in /  0.0mm 76 W/m2
12:04 45.3 °F /  7.4 °C 42.8 °F /  6 °C 29.8in /  1009.1hPa WNW 2.9mph /  4.7km/h 4mph /  6.4km/h 91% 0in /  0.0mm 100 W/m2
12:09 45.5 °F /  7.5 °C 43.3 °F /  6.3 °C 29.8in /  1009.5hPa WNW 0.9mph /  1.4km/h 2mph /  3.2km/h 92% 0in /  0.0mm 116 W/m2
12:14 45.7 °F /  7.6 °C 43.5 °F /  6.4 °C 29.8in /  1009.5hPa NW 2mph /  3.2km/h 8mph /  12.9km/h 92% 0in /  0.0mm 120 W/m2
12:19 46 °F /  7.8 °C 43.5 °F /  6.4 °C 29.8in /  1009.5hPa West 0.9mph /  1.4km/h 4mph /  6.4km/h 91% 0in /  0.0mm 107 W/m2
12:24 46.2 °F /  7.9 °C 43.7 °F /  6.5 °C 29.8in /  1009.5hPa West 0.9mph /  1.4km/h 7mph /  11.3km/h 91% 0in /  0.0mm 114 W/m2
12:29 46.2 °F /  7.9 °C 43.7 °F /  6.5 °C 29.8in /  1009.5hPa SW 2.9mph /  4.7km/h 6mph /  9.7km/h 91% 0in /  0.0mm 120 W/m2
12:34 46.2 °F /  7.9 °C 43.5 °F /  6.4 °C 29.8in /  1009.1hPa SW 4.9mph /  7.9km/h 8mph /  12.9km/h 90% 0in /  0.0mm 67 W/m2
12:39 46.4 °F /  8 °C 43.7 °F /  6.5 °C 29.8in /  1009.5hPa West 2.9mph /  4.7km/h 6mph /  9.7km/h 90% 0in /  0.0mm 56 W/m2
12:44 46.4 °F /  8 °C 43.7 °F /  6.5 °C 29.8in /  1009.1hPa West 2mph /  3.2km/h 7mph /  11.3km/h 90% 0in /  0.0mm 127 W/m2
12:49 46.4 °F /  8 °C 43.7 °F /  6.5 °C 29.8in /  1009.5hPa NW 2.9mph /  4.7km/h 4mph /  6.4km/h 90% 0in /  0.0mm 132 W/m2
12:54 46.6 °F /  8.1 °C 43.9 °F /  6.6 °C 29.8in /  1009.1hPa WNW 2.9mph /  4.7km/h 7mph /  11.3km/h 90% 0in /  0.0mm 113 W/m2
12:59 46.6 °F /  8.1 °C 43.9 °F /  6.6 °C 29.8in /  1009.1hPa West 2mph /  3.2km/h 3mph /  4.8km/h 90% 0in /  0.0mm 84 W/m2
13:04 46.4 °F /  8 °C 43.7 °F /  6.5 °C 29.8in /  1009.1hPa NW 2mph /  3.2km/h 4mph /  6.4km/h 90% 0in /  0.0mm 79 W/m2
13:09 46.4 °F /  8 °C 43.9 °F /  6.6 °C 29.8in /  1009.1hPa WNW 2mph /  3.2km/h 4mph /  6.4km/h 91% 0in /  0.0mm 63 W/m2
13:14 46.2 °F /  7.9 °C 43.7 °F /  6.5 °C 29.8in /  1009.1hPa West 2mph /  3.2km/h 7mph /  11.3km/h 91% 0in /  0.0mm 90 W/m2
13:19 46 °F /  7.8 °C 43.5 °F /  6.4 °C 29.8in /  1009.1hPa NW 2mph /  3.2km/h 5mph /  8km/h 91% 0in /  0.0mm 60 W/m2
13:24 46 °F /  7.8 °C 43.9 °F /  6.6 °C 29.8in /  1009.1hPa WNW 2.9mph /  4.7km/h 7mph /  11.3km/h 92% 0in /  0.0mm 84 W/m2
13:29 45.9 °F /  7.7 °C 43.7 °F /  6.5 °C 29.8in /  1008.8hPa West 2.9mph /  4.7km/h 8mph /  12.9km/h 92% 0in /  0.0mm 90 W/m2
13:34 45.7 °F /  7.6 °C 43.5 °F /  6.4 °C 29.8in /  1009.1hPa WNW 4.9mph /  7.9km/h 8mph /  12.9km/h 92% 0in /  0.0mm 83 W/m2
13:39 45.7 °F /  7.6 °C 43.7 °F /  6.5 °C 29.8in /  1008.8hPa WNW 2mph /  3.2km/h 6mph /  9.7km/h 93% 0in /  0.0mm 93 W/m2
13:44 45.7 °F /  7.6 °C 43.7 °F /  6.5 °C 29.8in /  1008.8hPa WNW 6mph /  9.7km/h 8mph /  12.9km/h 93% 0in /  0.0mm 95 W/m2
13:49 45.7 °F /  7.6 °C 43.7 °F /  6.5 °C 29.8in /  1008.8hPa SW 2.9mph /  4.7km/h 5mph /  8km/h 93% 0in /  0.0mm 97 W/m2
13:54 45.7 °F /  7.6 °C 43.7 °F /  6.5 °C 29.8in /  1008.8hPa WNW 2.9mph /  4.7km/h 7mph /  11.3km/h 93% 0in /  0.0mm 90 W/m2
13:59 45.7 °F /  7.6 °C 43.7 °F /  6.5 °C 29.8in /  1008.8hPa WNW 2.9mph /  4.7km/h 7mph /  11.3km/h 93% 0in /  0.0mm 67 W/m2
14:04 45.7 °F /  7.6 °C 43.7 °F /  6.5 °C 29.8in /  1008.8hPa West 6mph /  9.7km/h 6mph /  9.7km/h 93% 0in /  0.0mm 53 W/m2
14:09 45.7 °F /  7.6 °C 43.7 °F /  6.5 °C 29.8in /  1008.8hPa WNW 4.9mph /  7.9km/h 7mph /  11.3km/h 93% 0in /  0.0mm 35 W/m2
14:14 45.3 °F /  7.4 °C 43.3 °F /  6.3 °C 29.8in /  1008.8hPa West 10.1mph /  16.3km/h 12mph /  19.3km/h 93% 0.01in /  0.2mm 76 W/m2
14:19 45 °F /  7.2 °C 43 °F /  6.1 °C 29.8in /  1009.1hPa West 8.1mph /  13km/h 10mph /  16.1km/h 93% 0.01in /  0.2mm 83 W/m2
14:24 44.8 °F /  7.1 °C 42.8 °F /  6 °C 29.8in /  1009.1hPa West 4mph /  6.4km/h 13mph /  20.9km/h 93% 0.01in /  0.2mm 44 W/m2
14:29 44.8 °F /  7.1 °C 42.8 °F /  6 °C 29.8in /  1009.1hPa West 4mph /  6.4km/h 7mph /  11.3km/h 93% 0.01in /  0.2mm 37 W/m2
14:34 44.4 °F /  6.9 °C 42.4 °F /  5.8 °C 29.8in /  1009.1hPa West 4mph /  6.4km/h 13mph /  20.9km/h 93% 0.01in /  0.2mm 37 W/m2
14:39 44.4 °F /  6.9 °C 42.4 °F /  5.8 °C 29.8in /  1009.1hPa West 4mph /  6.4km/h 9mph /  14.5km/h 93% 0.01in /  0.2mm 32 W/m2
14:44 44.2 °F /  6.8 °C 42.1 °F /  5.6 °C 29.8in /  1009.1hPa West 6.9mph /  11.1km/h 11mph /  17.7km/h 92% 0.01in /  0.2mm 32 W/m2
14:49 44.1 °F /  6.7 °C 41.9 °F /  5.5 °C 29.8in /  1009.1hPa NW 4mph /  6.4km/h 11mph /  17.7km/h 92% 0.01in /  0.2mm 14 W/m2
14:54 44.1 °F /  6.7 °C 41.9 °F /  5.5 °C 29.8in /  1009.1hPa WNW 6mph /  9.7km/h 7mph /  11.3km/h 92% 0.01in /  0.2mm 14 W/m2
14:59 43.9 °F /  6.6 °C 41.7 °F /  5.4 °C 29.8in /  1009.1hPa WSW 6.9mph /  11.1km/h 9mph /  14.5km/h 92% 0.01in /  0.2mm 16 W/m2
15:04 43.5 °F /  6.4 °C 41.4 °F /  5.2 °C 29.8in /  1009.1hPa WSW 2.9mph /  4.7km/h 7mph /  11.3km/h 92% 0.01in /  0.2mm 23 W/m2
15:09 43.3 °F /  6.3 °C 41.5 °F /  5.3 °C 29.8in /  1009.1hPa West 2.9mph /  4.7km/h 9mph /  14.5km/h 93% 0.01in /  0.2mm 30 W/m2
15:14 43.3 °F /  6.3 °C 41.5 °F /  5.3 °C 29.8in /  1009.1hPa SW 2.9mph /  4.7km/h 8mph /  12.9km/h 93% 0in /  0.0mm 19 W/m2
15:20 43.3 °F /  6.3 °C 41.5 °F /  5.3 °C 29.8in /  1009.1hPa West 2mph /  3.2km/h 6mph /  9.7km/h 93% 0in /  0.0mm 23 W/m2
15:25 43.3 °F /  6.3 °C 41.5 °F /  5.3 °C 29.8in /  1009.1hPa WNW 6mph /  9.7km/h 7mph /  11.3km/h 93% 0in /  0.0mm 21 W/m2
15:30 43.3 °F /  6.3 °C 41.5 °F /  5.3 °C 29.8in /  1009.5hPa NW 4mph /  6.4km/h 8mph /  12.9km/h 93% 0in /  0.0mm 5 W/m2
15:35 42.8 °F /  6 °C 40.3 °F /  4.6 °C 29.8in /  1009.8hPa WNW 8.9mph /  14.3km/h 15mph /  24.1km/h 91% 0in /  0.0mm 7 W/m2
15:40 42.3 °F /  5.7 °C 39.7 °F /  4.3 °C 29.8in /  1010.2hPa West 6mph /  9.7km/h 13mph /  20.9km/h 91% 0in /  0.0mm 7 W/m2
15:45 42.1 °F /  5.6 °C 39.4 °F /  4.1 °C 29.8in /  1010.2hPa West 8.1mph /  13km/h 11mph /  17.7km/h 90% 0in /  0.0mm 5 W/m2
15:50 41.7 °F /  5.4 °C 39 °F /  3.9 °C 29.8in /  1010.2hPa WNW 6mph /  9.7km/h 11mph /  17.7km/h 90% 0in /  0.0mm 7 W/m2
15:55 41.7 °F /  5.4 °C 38.7 °F /  3.7 °C 29.8in /  1010.2hPa West 6.9mph /  11.1km/h 10mph /  16.1km/h 89% 0in /  0.0mm 5 W/m2
16:00 41.5 °F /  5.3 °C 38.5 °F /  3.6 °C 29.8in /  1010.5hPa East 2mph /  3.2km/h 8mph /  12.9km/h 89% 0in /  0.0mm 5 W/m2
16:05 41.4 °F /  5.2 °C 38.3 °F /  3.5 °C 29.8in /  1010.5hPa WSW 6.9mph /  11.1km/h 8mph /  12.9km/h 89% 0in /  0.0mm 0 W/m2
16:10 41.2 °F /  5.1 °C 37.9 °F /  3.3 °C 29.8in /  1010.5hPa East 6.9mph /  11.1km/h 13mph /  20.9km/h 88% 0in /  0.0mm 0 W/m2
16:15 40.8 °F /  4.9 °C 37.8 °F /  3.2 °C 29.9in /  1010.8hPa West 6mph /  9.7km/h 11mph /  17.7km/h 89% 0in /  0.0mm 0 W/m2
16:20 40.6 °F /  4.8 °C 37.6 °F /  3.1 °C 29.9in /  1010.8hPa West 8.1mph /  13km/h 13mph /  20.9km/h 89% 0in /  0.0mm 0 W/m2
16:25 40.1 °F /  4.5 °C 36.9 °F /  2.7 °C 29.9in /  1011.2hPa West 12.1mph /  19.5km/h 17mph /  27.4km/h 88% 0in /  0.0mm 0 W/m2
16:30 39.7 °F /  4.3 °C 36.7 °F /  2.6 °C 29.9in /  1011.2hPa WSW 4.9mph /  7.9km/h 8mph /  12.9km/h 89% 0in /  0.0mm 0 W/m2
16:35 39.6 °F /  4.2 °C 36.5 °F /  2.5 °C 29.9in /  1011.2hPa North 2.9mph /  4.7km/h 12mph /  19.3km/h 89% 0.01in /  0.2mm 0 W/m2
16:40 39.4 °F /  4.1 °C 36.7 °F /  2.6 °C 29.9in /  1011.5hPa West 6.9mph /  11.1km/h 15mph /  24.1km/h 90% 0.01in /  0.2mm 0 W/m2
16:45 39 °F /  3.9 °C 36.3 °F /  2.4 °C 29.9in /  1011.5hPa West 6mph /  9.7km/h 10mph /  16.1km/h 90% 0.01in /  0.2mm 0 W/m2
16:50 38.8 °F /  3.8 °C 36.1 °F /  2.3 °C 29.9in /  1011.9hPa West 8.1mph /  13km/h 15mph /  24.1km/h 90% 0.02in /  0.5mm 0 W/m2
16:55 38.5 °F /  3.6 °C 36.1 °F /  2.3 °C 29.9in /  1011.9hPa West 12.1mph /  19.5km/h 13mph /  20.9km/h 91% 0.02in /  0.5mm 0 W/m2
17:00 37.9 °F /  3.3 °C 35.6 °F /  2 °C 29.9in /  1011.9hPa NNW 2.9mph /  4.7km/h 12mph /  19.3km/h 91% 0.02in /  0.5mm 0 W/m2
17:05 37.8 °F /  3.2 °C 35.4 °F /  1.9 °C 29.9in /  1012.2hPa WSW 6.9mph /  11.1km/h 10mph /  16.1km/h 91% 0.02in /  0.5mm 0 W/m2
17:10 37.6 °F /  3.1 °C 35.4 °F /  1.9 °C 29.9in /  1012.2hPa West 4mph /  6.4km/h 11mph /  17.7km/h 92% 0.03in /  0.8mm 0 W/m2
17:15 37.6 °F /  3.1 °C 35.4 °F /  1.9 °C 29.9in /  1012.2hPa West 8.1mph /  13km/h 13mph /  20.9km/h 92% 0.04in /  1.0mm 0 W/m2
17:20 37.6 °F /  3.1 °C 35.4 °F /  1.9 °C 29.9in /  1012.5hPa WNW 4.9mph /  7.9km/h 11mph /  17.7km/h 92% 0.04in /  1.0mm 0 W/m2
17:25 37.6 °F /  3.1 °C 35.4 °F /  1.9 °C 29.9in /  1012.5hPa WNW 6mph /  9.7km/h 14mph /  22.5km/h 92% 0.05in /  1.3mm 0 W/m2
17:30 37.8 °F /  3.2 °C 35.6 °F /  2 °C 29.9in /  1012.5hPa WNW 4.9mph /  7.9km/h 8mph /  12.9km/h 92% 0.05in /  1.3mm 0 W/m2
17:35 37.8 °F /  3.2 °C 35.6 °F /  2 °C 29.9in /  1012.9hPa WNW 4mph /  6.4km/h 11mph /  17.7km/h 92% 0.04in /  1.0mm 0 W/m2
17:40 37.8 °F /  3.2 °C 35.6 °F /  2 °C 29.9in /  1012.5hPa WNW 4.9mph /  7.9km/h 11mph /  17.7km/h 92% 0.05in /  1.3mm 0 W/m2
17:45 37.8 °F /  3.2 °C 35.6 °F /  2 °C 29.9in /  1012.9hPa NW 6.9mph /  11.1km/h 9mph /  14.5km/h 92% 0.05in /  1.3mm 0 W/m2
17:50 37.8 °F /  3.2 °C 35.6 °F /  2 °C 29.9in /  1012.9hPa NW 6.9mph /  11.1km/h 11mph /  17.7km/h 92% 0.04in /  1.0mm 0 W/m2
17:55 37.9 °F /  3.3 °C 35.8 °F /  2.1 °C 29.9in /  1012.9hPa WNW 2.9mph /  4.7km/h 10mph /  16.1km/h 92% 0.05in /  1.3mm 0 W/m2
18:00 37.9 °F /  3.3 °C 35.8 °F /  2.1 °C 29.9in /  1012.9hPa NW 4mph /  6.4km/h 9mph /  14.5km/h 92% 0.04in /  1.0mm 0 W/m2
18:05 37.9 °F /  3.3 °C 35.8 °F /  2.1 °C 29.9in /  1012.9hPa West 2.9mph /  4.7km/h 7mph /  11.3km/h 92% 0.04in /  1.0mm 0 W/m2
18:10 37.9 °F /  3.3 °C 35.8 °F /  2.1 °C 29.9in /  1013.2hPa WNW 8.9mph /  14.3km/h 10mph /  16.1km/h 92% 0.03in /  0.8mm 0 W/m2
18:15 37.9 °F /  3.3 °C 35.8 °F /  2.1 °C 29.9in /  1013.2hPa WNW 2.9mph /  4.7km/h 8mph /  12.9km/h 92% 0.02in /  0.5mm 0 W/m2
18:20 37.9 °F /  3.3 °C 35.8 °F /  2.1 °C 29.9in /  1013.2hPa SW 4.9mph /  7.9km/h 8mph /  12.9km/h 92% 0.02in /  0.5mm 0 W/m2
18:25 37.9 °F /  3.3 °C 35.8 °F /  2.1 °C 29.9in /  1013.2hPa West 2.9mph /  4.7km/h 10mph /  16.1km/h 92% 0.02in /  0.5mm 0 W/m2
18:30 37.9 °F /  3.3 °C 35.8 °F /  2.1 °C 29.9in /  1013.2hPa NW 4mph /  6.4km/h 5mph /  8km/h 92% 0.02in /  0.5mm 0 W/m2
18:35 38.1 °F /  3.4 °C 36 °F /  2.2 °C 29.9in /  1013.2hPa WNW 2.9mph /  4.7km/h 10mph /  16.1km/h 92% 0.02in /  0.5mm 0 W/m2
18:40 38.1 °F /  3.4 °C 36 °F /  2.2 °C 29.9in /  1013.5hPa WSW 4mph /  6.4km/h 4mph /  6.4km/h 92% 0.01in /  0.2mm 0 W/m2
18:45 38.3 °F /  3.5 °C 36.1 °F /  2.3 °C 29.9in /  1013.5hPa West 6.9mph /  11.1km/h 8mph /  12.9km/h 92% 0.01in /  0.2mm 0 W/m2
18:50 38.5 °F /  3.6 °C 36.3 °F /  2.4 °C 29.9in /  1013.5hPa West 8.1mph /  13km/h 8mph /  12.9km/h 92% 0.01in /  0.2mm 0 W/m2
18:55 38.5 °F /  3.6 °C 36.3 °F /  2.4 °C 29.9in /  1013.5hPa WNW 0.9mph /  1.4km/h 7mph /  11.3km/h 92% 0in /  0.0mm 0 W/m2
19:00 38.7 °F /  3.7 °C 36.5 °F /  2.5 °C 29.9in /  1013.9hPa West 2mph /  3.2km/h 10mph /  16.1km/h 92% 0in /  0.0mm 0 W/m2
19:05 38.7 °F /  3.7 °C 36.5 °F /  2.5 °C 29.9in /  1013.9hPa West 4mph /  6.4km/h 7mph /  11.3km/h 92% 0in /  0.0mm 0 W/m2
19:10 38.7 °F /  3.7 °C 36.5 °F /  2.5 °C 29.9in /  1013.9hPa WNW 2mph /  3.2km/h 7mph /  11.3km/h 92% 0in /  0.0mm 0 W/m2
19:15 38.7 °F /  3.7 °C 36.5 °F /  2.5 °C 29.9in /  1013.9hPa WNW 2mph /  3.2km/h 7mph /  11.3km/h 92% 0in /  0.0mm 0 W/m2
19:20 38.5 °F /  3.6 °C 36.3 °F /  2.4 °C 30in /  1014.2hPa WNW 2mph /  3.2km/h 7mph /  11.3km/h 92% 0in /  0.0mm 0 W/m2
19:25 38.5 °F /  3.6 °C 36.3 °F /  2.4 °C 30in /  1014.2hPa NNW 2.9mph /  4.7km/h 7mph /  11.3km/h 92% 0in /  0.0mm 0 W/m2
19:30 38.5 °F /  3.6 °C 36.3 °F /  2.4 °C 30in /  1014.2hPa West 2.9mph /  4.7km/h 8mph /  12.9km/h 92% 0in /  0.0mm 0 W/m2
19:35 38.5 °F /  3.6 °C 36.3 °F /  2.4 °C 30in /  1014.2hPa WNW 4mph /  6.4km/h 6mph /  9.7km/h 92% 0in /  0.0mm 0 W/m2
19:40 38.5 °F /  3.6 °C 36.3 °F /  2.4 °C 30in /  1014.2hPa WSW 2.9mph /  4.7km/h 7mph /  11.3km/h 92% 0in /  0.0mm 0 W/m2
19:45 38.5 °F /  3.6 °C 36.3 °F /  2.4 °C 30in /  1014.2hPa West 4mph /  6.4km/h 4mph /  6.4km/h 92% 0in /  0.0mm 0 W/m2
19:50 38.5 °F /  3.6 °C 36.3 °F /  2.4 °C 30in /  1014.6hPa NW 2.9mph /  4.7km/h 7mph /  11.3km/h 92% 0in /  0.0mm 0 W/m2
19:55 38.5 °F /  3.6 °C 36.3 °F /  2.4 °C 30in /  1014.6hPa WNW 2mph /  3.2km/h 5mph /  8km/h 92% 0in /  0.0mm 0 W/m2
20:00 38.5 °F /  3.6 °C 36.3 °F /  2.4 °C 30in /  1014.6hPa West 6mph /  9.7km/h 6mph /  9.7km/h 92% 0in /  0.0mm 0 W/m2
20:05 38.5 °F /  3.6 °C 36.3 °F /  2.4 °C 30in /  1014.6hPa West 2mph /  3.2km/h 4mph /  6.4km/h 92% 0in /  0.0mm 0 W/m2
20:10 38.5 °F /  3.6 °C 36.3 °F /  2.4 °C 30in /  1014.6hPa West 0.9mph /  1.4km/h 2mph /  3.2km/h 92% 0in /  0.0mm 0 W/m2
20:15 38.5 °F /  3.6 °C 36.3 °F /  2.4 °C 30in /  1014.6hPa WNW 2mph /  3.2km/h 3mph /  4.8km/h 92% 0in /  0.0mm 0 W/m2
20:20 38.5 °F /  3.6 °C 36.3 °F /  2.4 °C 30in /  1014.6hPa WNW 2mph /  3.2km/h 4mph /  6.4km/h 92% 0in /  0.0mm 0 W/m2
20:25 38.3 °F /  3.5 °C 36.1 °F /  2.3 °C 30in /  1014.9hPa West 0.9mph /  1.4km/h 4mph /  6.4km/h 92% 0in /  0.0mm 0 W/m2
20:30 38.3 °F /  3.5 °C 36.1 °F /  2.3 °C 30in /  1014.9hPa WNW 2mph /  3.2km/h 6mph /  9.7km/h 92% 0in /  0.0mm 0 W/m2
20:35 38.3 °F /  3.5 °C 36.1 °F /  2.3 °C 30in /  1014.9hPa WNW 4.9mph /  7.9km/h 5mph /  8km/h 92% 0in /  0.0mm 0 W/m2
20:40 38.1 °F /  3.4 °C 36 °F /  2.2 °C 30in /  1014.9hPa West 2mph /  3.2km/h 6mph /  9.7km/h 92% 0in /  0.0mm 0 W/m2
20:45 38.1 °F /  3.4 °C 36 °F /  2.2 °C 30in /  1015.2hPa SSW 6.9mph /  11.1km/h 7mph /  11.3km/h 92% 0in /  0.0mm 0 W/m2
20:50 38.1 °F /  3.4 °C 36 °F /  2.2 °C 30in /  1015.2hPa WSW 2.9mph /  4.7km/h 5mph /  8km/h 92% 0in /  0.0mm 0 W/m2
20:55 37.9 °F /  3.3 °C 35.8 °F /  2.1 °C 30in /  1015.2hPa West 2mph /  3.2km/h 4mph /  6.4km/h 92% 0in /  0.0mm 0 W/m2
21:00 37.9 °F /  3.3 °C 35.8 °F /  2.1 °C 30in /  1015.2hPa WNW 2.9mph /  4.7km/h 7mph /  11.3km/h 92% 0in /  0.0mm 0 W/m2
21:05 37.9 °F /  3.3 °C 35.8 °F /  2.1 °C 30in /  1015.2hPa WNW 0.9mph /  1.4km/h 5mph /  8km/h 92% 0in /  0.0mm 0 W/m2
21:10 37.9 °F /  3.3 °C 35.8 °F /  2.1 °C 30in /  1015.2hPa West 2mph /  3.2km/h 6mph /  9.7km/h 92% 0in /  0.0mm 0 W/m2
21:15 38.1 °F /  3.4 °C 36 °F /  2.2 °C 30in /  1015.2hPa West 4mph /  6.4km/h 9mph /  14.5km/h 92% 0in /  0.0mm 0 W/m2
21:20 38.1 °F /  3.4 °C 36 °F /  2.2 °C 30in /  1015.6hPa West 4mph /  6.4km/h 8mph /  12.9km/h 92% 0in /  0.0mm 0 W/m2
21:25 38.1 °F /  3.4 °C 36 °F /  2.2 °C 30in /  1015.2hPa WNW 2.9mph /  4.7km/h 9mph /  14.5km/h 92% 0in /  0.0mm 0 W/m2
21:30 37.9 °F /  3.3 °C 35.8 °F /  2.1 °C 30in /  1015.2hPa NW 2.9mph /  4.7km/h 9mph /  14.5km/h 92% 0in /  0.0mm 0 W/m2
21:35 38.1 °F /  3.4 °C 36 °F /  2.2 °C 30in /  1015.2hPa West 6.9mph /  11.1km/h 9mph /  14.5km/h 92% 0in /  0.0mm 0 W/m2
21:40 38.1 °F /  3.4 °C 36 °F /  2.2 °C 30in /  1015.2hPa West 2.9mph /  4.7km/h 8mph /  12.9km/h 92% 0in /  0.0mm 0 W/m2
21:45 37.9 °F /  3.3 °C 35.8 °F /  2.1 °C 30in /  1015.6hPa West 4mph /  6.4km/h 9mph /  14.5km/h 92% 0in /  0.0mm 0 W/m2
21:50 37.9 °F /  3.3 °C 35.8 °F /  2.1 °C 30in /  1015.6hPa WNW 6.9mph /  11.1km/h 8mph /  12.9km/h 92% 0in /  0.0mm 0 W/m2
21:55 37.9 °F /  3.3 °C 35.8 °F /  2.1 °C 30in /  1015.6hPa West 4mph /  6.4km/h 7mph /  11.3km/h 92% 0in /  0.0mm 0 W/m2
22:01 37.9 °F /  3.3 °C 35.8 °F /  2.1 °C 30in /  1015.6hPa WNW 4.9mph /  7.9km/h 9mph /  14.5km/h 92% 0in /  0.0mm 0 W/m2
22:06 37.9 °F /  3.3 °C 35.8 °F /  2.1 °C 30in /  1015.9hPa West 4mph /  6.4km/h 7mph /  11.3km/h 92% 0in /  0.0mm 0 W/m2
22:11 37.9 °F /  3.3 °C 35.8 °F /  2.1 °C 30in /  1015.6hPa West 6mph /  9.7km/h 10mph /  16.1km/h 92% 0in /  0.0mm 0 W/m2
22:16 38.1 °F /  3.4 °C 35.8 °F /  2.1 °C 30in /  1015.9hPa West 6mph /  9.7km/h 9mph /  14.5km/h 91% 0in /  0.0mm 0 W/m2
22:21 38.1 °F /  3.4 °C 35.8 °F /  2.1 °C 30in /  1015.9hPa WSW 2.9mph /  4.7km/h 10mph /  16.1km/h 91% 0in /  0.0mm 0 W/m2
22:26 38.1 °F /  3.4 °C 35.8 °F /  2.1 °C 30in /  1015.9hPa West 6.9mph /  11.1km/h 9mph /  14.5km/h 91% 0in /  0.0mm 0 W/m2
22:31 37.9 °F /  3.3 °C 35.6 °F /  2 °C 30in /  1015.9hPa West 4mph /  6.4km/h 10mph /  16.1km/h 91% 0in /  0.0mm 0 W/m2
22:36 37.9 °F /  3.3 °C 35.6 °F /  2 °C 30in /  1016.3hPa WSW 4.9mph /  7.9km/h 10mph /  16.1km/h 91% 0in /  0.0mm 0 W/m2
22:41 37.9 °F /  3.3 °C 35.6 °F /  2 °C 30in /  1015.9hPa North 4mph /  6.4km/h 8mph /  12.9km/h 91% 0in /  0.0mm 0 W/m2
22:46 37.9 °F /  3.3 °C 35.6 °F /  2 °C 30in /  1016.3hPa WSW 4mph /  6.4km/h 7mph /  11.3km/h 91% 0in /  0.0mm 0 W/m2
22:51 37.8 °F /  3.2 °C 35.4 °F /  1.9 °C 30in /  1016.3hPa WSW 4.9mph /  7.9km/h 9mph /  14.5km/h 91% 0in /  0.0mm 0 W/m2
22:56 37.8 °F /  3.2 °C 35.4 °F /  1.9 °C 30in /  1016.3hPa WNW 2mph /  3.2km/h 7mph /  11.3km/h 91% 0in /  0.0mm 0 W/m2
23:01 37.6 °F /  3.1 °C 35.2 °F /  1.8 °C 30in /  1016.3hPa West 4mph /  6.4km/h 7mph /  11.3km/h 91% 0in /  0.0mm 0 W/m2
23:06 37.6 °F /  3.1 °C 35.2 °F /  1.8 °C 30in /  1016.6hPa West 4mph /  6.4km/h 6mph /  9.7km/h 91% 0in /  0.0mm 0 W/m2
23:11 37.6 °F /  3.1 °C 35.2 °F /  1.8 °C 30in /  1016.6hPa WSW 4mph /  6.4km/h 4mph /  6.4km/h 91% 0in /  0.0mm 0 W/m2
23:16 37.6 °F /  3.1 °C 35.2 °F /  1.8 °C 30in /  1016.6hPa WNW 4mph /  6.4km/h 7mph /  11.3km/h 91% 0in /  0.0mm 0 W/m2
23:21 37.8 °F /  3.2 °C 35.4 °F /  1.9 °C 30in /  1016.6hPa WNW 2.9mph /  4.7km/h 8mph /  12.9km/h 91% 0in /  0.0mm 0 W/m2
23:26 37.9 °F /  3.3 °C 35.6 °F /  2 °C 30in /  1016.6hPa West 2mph /  3.2km/h 6mph /  9.7km/h 91% 0in /  0.0mm 0 W/m2
23:31 37.9 °F /  3.3 °C 35.6 °F /  2 °C 30in /  1016.9hPa West 2mph /  3.2km/h 4mph /  6.4km/h 91% 0in /  0.0mm 0 W/m2
23:36 37.8 °F /  3.2 °C 35.4 °F /  1.9 °C 30in /  1016.9hPa West 2.9mph /  4.7km/h 4mph /  6.4km/h 91% 0in /  0.0mm 0 W/m2
23:41 37.8 °F /  3.2 °C 35.4 °F /  1.9 °C 30in /  1016.9hPa WNW 2.9mph /  4.7km/h 4mph /  6.4km/h 91% 0in /  0.0mm 0 W/m2
23:46 37.6 °F /  3.1 °C 35.2 °F /  1.8 °C 30in /  1016.9hPa WNW 2mph /  3.2km/h 3mph /  4.8km/h 91% 0in /  0.0mm 0 W/m2
23:51 37.6 °F /  3.1 °C 35.2 °F /  1.8 °C 30in /  1016.9hPa West 2.9mph /  4.7km/h 4mph /  6.4km/h 91% 0in /  0.0mm 0 W/m2
23:56 37.6 °F /  3.1 °C 35.2 °F /  1.8 °C 30in /  1016.9hPa West 4mph /  6.4km/h 6mph /  9.7km/h 91% 0in /  0.0mm 0 W/m2
Juneau County Weather
Compliments of Weather Underground - 4 mb